createdAt,value
2023-03-28T00:02:28.272Z,1.90
2023-03-28T00:04:59.513Z,2.23
2023-03-28T00:07:29.945Z,1.53
2023-03-28T00:10:00.490Z,1.67
2023-03-28T00:15:15.642Z,0.90
2023-03-28T00:17:46.243Z,1.27
2023-03-28T00:20:20.566Z,0.93
2023-03-28T00:22:50.329Z,1.23
2023-03-28T00:25:20.832Z,3.00
2023-03-28T00:27:52.018Z,3.10
2023-03-28T00:30:23.295Z,1.50
2023-03-28T00:32:54.018Z,2.57
2023-03-28T00:35:24.187Z,1.53
2023-03-28T00:40:40.613Z,2.53
2023-03-28T00:43:16.094Z,1.93
2023-03-28T00:45:47.310Z,2.00
2023-03-28T00:48:21.279Z,2.63
2023-03-28T00:50:49.502Z,1.47
2023-03-28T00:53:24.049Z,1.07
2023-03-28T00:56:00.547Z,2.27
2023-03-28T00:58:34.510Z,1.37
2023-03-28T01:01:05.899Z,1.63
2023-03-28T01:03:53.547Z,2.17
2023-03-28T01:06:25.719Z,2.20
2023-03-28T01:08:55.188Z,1.10
2023-03-28T01:11:25.240Z,1.40
2023-03-28T01:13:55.317Z,2.30
2023-03-28T01:16:25.100Z,2.73
2023-03-28T01:18:55.346Z,2.17
2023-03-28T01:21:38.465Z,2.37
2023-03-28T01:24:35.326Z,1.17
2023-03-28T01:27:46.330Z,2.83
2023-03-28T01:30:50.551Z,3.53
2023-03-28T01:33:57.638Z,1.87
2023-03-28T01:36:59.563Z,2.03
2023-03-28T01:39:58.919Z,3.03
2023-03-28T01:46:23.795Z,1.00
2023-03-28T01:49:46.777Z,1.47
2023-03-28T01:52:49.732Z,1.60
2023-03-28T01:55:41.543Z,2.00
2023-03-28T01:58:36.884Z,1.60
2023-03-28T02:01:19.059Z,3.60
2023-03-28T02:03:56.340Z,2.03
2023-03-28T02:06:28.213Z,1.33
2023-03-28T02:09:03.690Z,2.17
2023-03-28T02:11:36.059Z,2.53
2023-03-28T02:14:25.298Z,2.60
2023-03-28T02:17:01.252Z,2.13
2023-03-28T02:19:36.953Z,1.80
2023-03-28T02:22:24.903Z,1.93
2023-03-28T02:24:53.389Z,2.60
2023-03-28T02:27:22.656Z,1.67
2023-03-28T02:29:52.697Z,2.93
2023-03-28T02:32:26.084Z,2.30
2023-03-28T02:34:59.343Z,3.23
2023-03-28T02:38:08.859Z,1.83
2023-03-28T02:41:09.977Z,2.00
2023-03-28T02:44:27.216Z,1.60
2023-03-28T02:47:34.710Z,2.27
2023-03-28T02:50:28.350Z,2.90
2023-03-28T02:53:37.571Z,1.60
2023-03-28T02:56:22.325Z,1.87
2023-03-28T02:59:12.473Z,1.93
2023-03-28T03:04:27.327Z,2.50
2023-03-28T03:06:59.809Z,2.10
2023-03-28T03:09:30.157Z,1.83
2023-03-28T03:11:58.664Z,2.73
2023-03-28T03:14:30.346Z,1.93
2023-03-28T03:17:00.490Z,2.47
2023-03-28T03:19:32.981Z,2.20
2023-03-28T03:22:02.353Z,1.43
2023-03-28T03:24:32.689Z,1.63
2023-03-28T03:27:05.048Z,2.10
2023-03-28T03:29:43.186Z,1.47
2023-03-28T03:32:16.750Z,1.23
2023-03-28T03:34:45.527Z,1.93
2023-03-28T03:37:18.110Z,1.53
2023-03-28T03:39:48.611Z,2.07
2023-03-28T03:42:20.004Z,1.80
2023-03-28T03:44:51.715Z,1.30
2023-03-28T03:47:23.111Z,1.10
2023-03-28T03:49:54.270Z,2.63
2023-03-28T03:52:25.797Z,1.57
2023-03-28T03:57:41.631Z,1.47
2023-03-28T04:00:20.088Z,2.70
2023-03-28T04:02:52.254Z,1.40
2023-03-28T04:05:23.892Z,1.10
2023-03-28T04:07:57.029Z,3.00
2023-03-28T04:10:27.741Z,2.80
2023-03-28T04:12:59.809Z,1.77
2023-03-28T04:15:31.357Z,3.90
2023-03-28T04:17:59.144Z,1.30
2023-03-28T04:20:33.886Z,1.30
2023-03-28T04:23:06.335Z,1.40
2023-03-28T04:25:36.591Z,2.67
2023-03-28T04:28:06.058Z,1.90
2023-03-28T04:30:37.715Z,1.00
2023-03-28T04:33:08.181Z,1.30
2023-03-28T04:35:38.456Z,3.23
2023-03-28T04:38:10.450Z,2.03
2023-03-28T04:40:52.224Z,1.67
2023-03-28T04:43:22.581Z,1.83
2023-03-28T04:45:54.567Z,1.50
2023-03-28T04:48:25.704Z,2.00
2023-03-28T04:50:55.866Z,1.87
2023-03-28T04:53:24.274Z,2.10
2023-03-28T04:55:57.052Z,1.67
2023-03-28T04:58:28.606Z,1.63
2023-03-28T05:00:56.716Z,1.47
2023-03-28T05:03:29.420Z,1.70
2023-03-28T05:05:58.839Z,2.73
2023-03-28T05:08:29.956Z,1.70
2023-03-28T05:11:01.200Z,1.50
2023-03-28T05:13:30.360Z,2.77
2023-03-28T05:16:00.218Z,2.10
2023-03-28T05:18:29.317Z,2.33
2023-03-28T05:20:59.971Z,1.80
2023-03-28T05:23:32.482Z,3.23
2023-03-28T05:26:01.635Z,1.43
2023-03-28T05:28:31.516Z,1.70
2023-03-28T05:31:03.439Z,2.37
2023-03-28T05:33:33.502Z,18.07
2023-03-28T05:36:04.844Z,21.47
2023-03-28T05:38:39.388Z,13.53
2023-03-28T05:41:07.490Z,18.13
2023-03-28T05:43:44.045Z,12.47
2023-03-28T05:46:17.184Z,11.97
2023-03-28T05:48:49.518Z,15.73
2023-03-28T05:51:18.318Z,12.90
2023-03-28T05:53:50.356Z,13.53
2023-03-28T05:56:21.649Z,18.53
2023-03-28T05:58:52.870Z,13.43
2023-03-28T06:01:26.152Z,16.03
2023-03-28T06:03:55.640Z,10.40
2023-03-28T06:06:25.670Z,11.97
2023-03-28T06:08:55.788Z,9.57
2023-03-28T06:11:26.117Z,10.37
2023-03-28T06:13:57.500Z,13.20
2023-03-28T06:16:31.625Z,11.87
2023-03-28T06:19:16.505Z,9.07
2023-03-28T06:21:48.901Z,8.17
2023-03-28T06:24:19.753Z,7.70
2023-03-28T06:26:50.205Z,9.53
2023-03-28T06:29:19.695Z,7.10
2023-03-28T06:31:48.950Z,8.83
2023-03-28T06:34:21.168Z,6.00
2023-03-28T06:39:34.619Z,7.80
2023-03-28T06:42:06.776Z,6.00
2023-03-28T06:44:34.796Z,7.20
2023-03-28T06:47:04.850Z,7.67
2023-03-28T06:49:34.844Z,6.50
2023-03-28T06:52:05.024Z,6.03
2023-03-28T06:54:35.356Z,7.03
2023-03-28T06:57:07.410Z,5.40
2023-03-28T06:59:36.899Z,4.47
2023-03-28T07:02:03.814Z,6.37
2023-03-28T07:04:37.427Z,7.87
2023-03-28T07:07:08.911Z,4.57
2023-03-28T07:09:43.012Z,5.23
2023-03-28T07:12:13.073Z,6.43
2023-03-28T07:14:44.494Z,4.57
2023-03-28T07:17:16.035Z,6.33
2023-03-28T07:19:52.071Z,7.23
2023-03-28T07:22:25.246Z,6.33
2023-03-28T07:24:56.738Z,4.90
2023-03-28T07:27:27.982Z,7.87
2023-03-28T07:29:59.516Z,6.00
2023-03-28T07:32:35.823Z,6.67
2023-03-28T07:35:13.798Z,5.00
2023-03-28T07:37:57.669Z,6.93
2023-03-28T07:40:26.217Z,6.50
2023-03-28T07:42:55.329Z,4.63
2023-03-28T07:45:29.398Z,5.27
2023-03-28T07:48:00.863Z,4.17
2023-03-28T07:50:32.618Z,3.73
2023-03-28T07:53:01.074Z,4.77
2023-03-28T07:55:37.149Z,4.77
2023-03-28T07:58:16.473Z,3.10
2023-03-28T08:00:48.456Z,4.40
2023-03-28T08:03:19.503Z,3.77
2023-03-28T08:05:52.265Z,5.30
2023-03-28T08:08:22.031Z,6.03
2023-03-28T08:13:37.904Z,4.93
2023-03-28T08:16:09.344Z,5.47
2023-03-28T08:18:41.227Z,5.43
2023-03-28T08:21:10.827Z,5.80
2023-03-28T08:23:41.633Z,7.47
2023-03-28T08:26:14.950Z,10.00
2023-03-28T08:28:46.171Z,7.20
2023-03-28T08:31:15.766Z,12.00
2023-03-28T08:33:59.941Z,11.77
2023-03-28T08:36:31.696Z,10.13
2023-03-28T08:39:10.576Z,11.10
2023-03-28T08:45:25.185Z,10.03
2023-03-28T08:48:23.453Z,8.23
2023-03-28T08:51:29.658Z,7.70
2023-03-28T08:54:47.721Z,9.33
2023-03-28T08:57:28.685Z,9.47
2023-03-28T09:00:27.139Z,5.43
2023-03-28T09:02:55.706Z,6.80
2023-03-28T09:06:12.876Z,6.80
2023-03-28T09:09:01.908Z,4.93
2023-03-28T09:12:24.454Z,6.67
2023-03-28T09:15:24.950Z,7.37
2023-03-28T09:18:21.541Z,14.13
2023-03-28T09:21:04.984Z,7.30
2023-03-28T09:24:16.226Z,7.93
2023-03-28T09:29:45.104Z,5.63
2023-03-28T09:32:18.702Z,6.17
2023-03-28T09:37:47.032Z,6.77
2023-03-28T09:40:34.439Z,6.10
2023-03-28T09:43:17.894Z,5.17
2023-03-28T09:46:09.344Z,5.13
2023-03-28T09:48:41.272Z,4.63
2023-03-28T09:51:24.531Z,5.30
2023-03-28T09:53:55.273Z,4.63
2023-03-28T09:56:33.783Z,7.83
2023-03-28T09:59:03.605Z,4.17
2023-03-28T10:01:54.773Z,5.67
2023-03-28T10:04:30.540Z,3.90
2023-03-28T10:07:16.645Z,4.30
2023-03-28T10:09:57.254Z,5.73
2023-03-28T10:12:37.781Z,4.57
2023-03-28T10:18:21.958Z,5.63
2023-03-28T10:20:51.931Z,3.27
2023-03-28T10:23:48.468Z,3.03
2023-03-28T10:29:10.958Z,4.73
2023-03-28T10:31:42.102Z,2.97
2023-03-28T10:34:33.519Z,6.80
2023-03-28T10:37:06.801Z,3.77
2023-03-28T10:39:38.190Z,3.00
2023-03-28T10:42:07.440Z,5.67
2023-03-28T10:44:37.539Z,3.87
2023-03-28T10:47:23.397Z,3.77
2023-03-28T10:49:58.146Z,3.37
2023-03-28T10:53:04.741Z,4.23
2023-03-28T10:55:45.263Z,3.33
2023-03-28T10:58:37.843Z,4.50
2023-03-28T11:01:45.810Z,4.13
2023-03-28T11:04:36.554Z,2.00
2023-03-28T11:07:27.394Z,3.00
2023-03-28T11:10:34.895Z,2.50
2023-03-28T11:13:28.327Z,3.47
2023-03-28T11:16:35.904Z,2.80
2023-03-28T11:19:36.832Z,2.63
2023-03-28T11:22:38.362Z,3.70
2023-03-28T11:25:45.130Z,2.30
2023-03-28T11:28:51.845Z,2.67
2023-03-28T11:31:56.566Z,3.07
2023-03-28T11:34:33.943Z,3.37
2023-03-28T11:37:23.257Z,3.53
2023-03-28T11:40:25.959Z,4.63
2023-03-28T11:43:04.739Z,2.37
2023-03-28T11:45:51.152Z,2.20
2023-03-28T11:48:28.190Z,3.37
2023-03-28T11:51:22.574Z,2.67
2023-03-28T11:54:14.400Z,3.40
2023-03-28T11:57:09.724Z,2.30
2023-03-28T12:00:10.082Z,1.80
2023-03-28T12:02:55.726Z,3.40
2023-03-28T12:05:57.849Z,2.43
2023-03-28T12:09:15.327Z,4.77
2023-03-28T12:11:52.990Z,2.67
2023-03-28T12:14:58.947Z,2.30
2023-03-28T12:17:48.039Z,1.97
2023-03-28T12:20:39.655Z,2.57
2023-03-28T12:23:31.054Z,1.80
2023-03-28T12:26:40.717Z,2.13
2023-03-28T12:29:28.179Z,4.80
2023-03-28T12:32:09.732Z,1.97
2023-03-28T12:34:52.116Z,2.47
2023-03-28T12:38:00.631Z,3.67
2023-03-28T12:41:06.248Z,2.13
2023-03-28T12:43:56.723Z,1.83
2023-03-28T12:46:29.672Z,3.13
2023-03-28T12:49:04.992Z,3.30
2023-03-28T12:51:44.508Z,2.50
2023-03-28T12:54:22.716Z,1.87
2023-03-28T12:57:36.389Z,1.47
2023-03-28T13:00:31.683Z,3.47
2023-03-28T13:03:33.465Z,2.23
2023-03-28T13:06:26.930Z,1.87
2023-03-28T13:09:29.037Z,2.07
2023-03-28T13:12:06.630Z,1.17
2023-03-28T13:14:45.083Z,1.93
2023-03-28T13:20:27.732Z,1.60
2023-03-28T13:23:03.319Z,3.00
2023-03-28T13:25:41.816Z,2.10
2023-03-28T13:28:32.789Z,1.83
2023-03-28T13:31:21.401Z,2.23
2023-03-28T13:34:16.051Z,1.83
2023-03-28T13:36:54.740Z,1.80
2023-03-28T13:39:30.951Z,1.87
2023-03-28T13:42:01.774Z,1.43
2023-03-28T13:44:42.666Z,1.80
2023-03-28T13:47:31.533Z,2.80
2023-03-28T13:50:28.852Z,3.23
2023-03-28T13:52:59.047Z,1.00
2023-03-28T13:55:30.952Z,1.93
2023-03-28T13:58:04.245Z,2.53
2023-03-28T14:00:38.710Z,2.27
2023-03-28T14:03:22.093Z,1.37
2023-03-28T14:05:53.884Z,5.73
2023-03-28T14:08:25.904Z,2.20
2023-03-28T14:11:02.839Z,1.80
2023-03-28T14:13:35.789Z,2.90
2023-03-28T14:16:11.422Z,2.60
2023-03-28T14:18:53.237Z,1.90
2023-03-28T14:21:27.072Z,2.47
2023-03-28T14:24:15.099Z,3.07
2023-03-28T14:26:45.393Z,3.60
2023-03-28T14:29:42.135Z,3.17
2023-03-28T14:32:35.197Z,1.90
2023-03-28T14:35:25.863Z,3.13
2023-03-28T14:37:57.487Z,3.80
2023-03-28T14:40:43.372Z,1.10
2023-03-28T14:43:34.567Z,1.77
2023-03-28T14:46:10.023Z,3.37
2023-03-28T14:49:04.340Z,2.13
2023-03-28T14:51:45.648Z,1.83
2023-03-28T14:54:19.401Z,0.97
2023-03-28T14:56:52.578Z,2.03
2023-03-28T14:59:24.205Z,2.63
2023-03-28T15:02:13.018Z,2.43
2023-03-28T15:04:47.573Z,1.80
2023-03-28T15:07:29.086Z,2.73
2023-03-28T15:10:28.098Z,1.70
2023-03-28T15:13:09.034Z,2.97
2023-03-28T15:18:43.072Z,2.70
2023-03-28T15:21:25.175Z,1.60
2023-03-28T15:23:57.858Z,1.23
2023-03-28T15:26:39.497Z,2.07
2023-03-28T15:29:11.498Z,1.40
2023-03-28T15:31:46.346Z,1.50
2023-03-28T15:34:35.328Z,1.93
2023-03-28T15:37:07.867Z,3.63
2023-03-28T15:39:39.314Z,3.03
2023-03-28T15:42:33.070Z,1.73
2023-03-28T15:45:28.854Z,2.13
2023-03-28T15:47:57.479Z,1.63
2023-03-28T15:50:55.128Z,2.80
2023-03-28T15:53:38.738Z,3.30
2023-03-28T15:56:31.301Z,3.63
2023-03-28T15:59:09.817Z,3.30
2023-03-28T16:01:52.924Z,3.63
2023-03-28T16:04:31.866Z,3.17
2023-03-28T16:09:58.657Z,3.70
2023-03-28T16:12:30.588Z,4.33
2023-03-28T16:14:58.890Z,3.20
2023-03-28T16:17:29.811Z,3.00
2023-03-28T16:20:10.715Z,4.40
2023-03-28T16:22:40.463Z,2.27
2023-03-28T16:25:11.469Z,3.73
2023-03-28T16:27:42.304Z,4.50
2023-03-28T16:30:24.130Z,2.20
2023-03-28T16:32:54.287Z,2.90
2023-03-28T16:35:27.623Z,3.07
2023-03-28T16:37:58.919Z,2.90
2023-03-28T16:40:28.893Z,2.43
2023-03-28T16:42:56.666Z,4.03
2023-03-28T16:45:29.012Z,2.20
2023-03-28T16:47:58.882Z,3.60
2023-03-28T16:50:33.538Z,7.27
2023-03-28T16:53:05.298Z,4.40
2023-03-28T16:55:35.556Z,2.93
2023-03-28T16:58:06.823Z,6.90
2023-03-28T17:00:38.546Z,3.17
2023-03-28T17:03:08.187Z,4.33
2023-03-28T17:05:38.302Z,3.93
2023-03-28T17:10:56.375Z,3.73
2023-03-28T17:13:29.005Z,2.30
2023-03-28T17:16:00.924Z,3.17
2023-03-28T17:18:31.737Z,3.27
2023-03-28T17:21:08.321Z,4.23
2023-03-28T17:23:40.824Z,3.47
2023-03-28T17:28:58.641Z,4.33
2023-03-28T17:31:32.158Z,2.97
2023-03-28T17:34:00.046Z,3.50
2023-03-28T17:36:34.858Z,3.57
2023-03-28T17:39:06.464Z,5.67
2023-03-28T17:41:37.959Z,2.83
2023-03-28T17:44:11.946Z,4.53
2023-03-28T17:46:39.905Z,4.87
2023-03-28T17:51:52.332Z,4.03
2023-03-28T17:54:20.246Z,3.07
2023-03-28T17:56:50.720Z,4.47
2023-03-28T17:59:19.844Z,4.47
2023-03-28T18:01:51.822Z,5.33
2023-03-28T18:04:24.690Z,5.10
2023-03-28T18:06:57.923Z,3.23
2023-03-28T18:09:30.695Z,4.67
2023-03-28T18:12:03.525Z,4.47
2023-03-28T18:14:35.239Z,2.23
2023-03-28T18:17:05.672Z,4.33
2023-03-28T18:19:33.731Z,2.47
2023-03-28T18:22:03.170Z,2.97
2023-03-28T18:24:33.597Z,5.03
2023-03-28T18:27:08.468Z,3.03
2023-03-28T18:29:36.260Z,3.60
2023-03-28T18:32:04.448Z,2.53
2023-03-28T18:34:32.622Z,2.70
2023-03-28T18:37:04.068Z,1.87
2023-03-28T18:39:35.720Z,2.50
2023-03-28T18:42:04.718Z,3.23
2023-03-28T18:44:36.754Z,5.07
2023-03-28T18:47:10.944Z,2.13
2023-03-28T18:49:43.733Z,5.10
2023-03-28T18:52:14.707Z,5.37
2023-03-28T18:54:46.895Z,3.80
2023-03-28T18:57:18.686Z,3.87
2023-03-28T18:59:49.271Z,2.93
2023-03-28T19:02:21.569Z,3.90
2023-03-28T19:04:54.673Z,2.40
2023-03-28T19:07:23.498Z,2.97
2023-03-28T19:09:54.113Z,2.50
2023-03-28T19:12:28.923Z,2.43
2023-03-28T19:15:00.638Z,8.00
2023-03-28T19:17:36.062Z,4.97
2023-03-28T19:20:20.182Z,7.07
2023-03-28T19:22:50.560Z,5.53
2023-03-28T19:25:21.521Z,5.93
2023-03-28T19:27:52.113Z,4.80
2023-03-28T19:30:22.669Z,3.17
2023-03-28T19:32:55.858Z,9.83
2023-03-28T19:35:25.226Z,5.97
2023-03-28T19:37:58.352Z,4.83
2023-03-28T19:40:37.810Z,6.00
2023-03-28T19:43:08.477Z,6.77
2023-03-28T19:45:41.254Z,4.27
2023-03-28T19:48:11.858Z,4.93
2023-03-28T19:50:43.858Z,5.63
2023-03-28T19:53:16.560Z,5.50
2023-03-28T19:55:55.633Z,4.60
2023-03-28T19:58:26.579Z,6.57
2023-03-28T20:00:58.344Z,3.03
2023-03-28T20:03:29.459Z,2.33
2023-03-28T20:06:06.422Z,2.80
2023-03-28T20:08:37.476Z,5.27
2023-03-28T20:11:20.480Z,6.80
2023-03-28T20:13:47.762Z,3.87
2023-03-28T20:16:17.240Z,4.27
2023-03-28T20:18:49.191Z,2.97
2023-03-28T20:21:17.030Z,3.37
2023-03-28T20:23:49.509Z,1.47
2023-03-28T20:26:27.859Z,3.37
2023-03-28T20:29:01.692Z,3.20
2023-03-28T20:31:33.232Z,1.63
2023-03-28T20:34:01.502Z,5.43
2023-03-28T20:36:35.383Z,2.27
2023-03-28T20:39:02.492Z,6.00
2023-03-28T20:41:39.032Z,2.57
2023-03-28T20:44:11.664Z,1.93
2023-03-28T20:46:43.348Z,3.53
2023-03-28T20:49:11.799Z,2.50
2023-03-28T20:51:42.254Z,2.70
2023-03-28T20:54:18.213Z,2.40
2023-03-28T20:56:47.368Z,2.47
2023-03-28T20:59:19.060Z,1.33
2023-03-28T21:01:50.723Z,2.50
2023-03-28T21:04:21.147Z,4.47
2023-03-28T21:06:52.309Z,1.73
2023-03-28T21:09:27.473Z,1.83
2023-03-28T21:11:57.135Z,2.53
2023-03-28T21:14:25.394Z,2.57
2023-03-28T21:17:00.493Z,1.63
2023-03-28T21:19:36.329Z,3.97
2023-03-28T21:22:16.702Z,1.40
2023-03-28T21:24:48.607Z,1.87
2023-03-28T21:27:21.725Z,2.20
2023-03-28T21:29:52.059Z,2.00
2023-03-28T21:32:23.451Z,1.30
2023-03-28T21:35:04.542Z,2.00
2023-03-28T21:37:35.670Z,2.10
2023-03-28T21:40:10.697Z,2.10
2023-03-28T21:42:41.501Z,1.43
2023-03-28T21:45:17.671Z,1.63
2023-03-28T21:47:50.356Z,2.27
2023-03-28T21:50:25.125Z,1.30
2023-03-28T21:52:54.962Z,1.93
2023-03-28T21:55:23.178Z,1.70
2023-03-28T21:57:55.059Z,1.93
2023-03-28T22:00:26.561Z,2.87
2023-03-28T22:02:57.849Z,1.97
2023-03-28T22:05:29.706Z,2.13
2023-03-28T22:07:59.433Z,3.40
2023-03-28T22:10:41.316Z,1.87
2023-03-28T22:13:14.147Z,1.57
2023-03-28T22:15:47.218Z,2.20
2023-03-28T22:18:20.991Z,2.17
2023-03-28T22:20:57.450Z,2.20
2023-03-28T22:23:29.002Z,4.07
2023-03-28T22:26:11.414Z,1.10
2023-03-28T22:28:43.407Z,1.27
2023-03-28T22:31:12.620Z,1.70
2023-03-28T22:33:41.602Z,3.13
2023-03-28T22:36:10.745Z,1.83
2023-03-28T22:38:39.359Z,1.60
2023-03-28T22:41:08.648Z,1.63
2023-03-28T22:43:38.567Z,0.83
2023-03-28T22:46:06.846Z,1.03
2023-03-28T22:48:40.087Z,1.37
2023-03-28T22:51:14.018Z,1.83
2023-03-28T22:53:43.885Z,2.17
2023-03-28T22:56:16.416Z,0.83
2023-03-28T22:58:45.866Z,1.00
2023-03-28T23:01:17.481Z,1.50
2023-03-28T23:03:48.543Z,2.10
2023-03-28T23:06:18.979Z,1.40
2023-03-28T23:08:49.239Z,1.40
2023-03-28T23:11:19.287Z,2.10
2023-03-28T23:13:48.199Z,2.43
2023-03-28T23:16:18.451Z,0.80
2023-03-28T23:18:50.274Z,1.43
2023-03-28T23:21:27.212Z,1.63
2023-03-28T23:23:56.867Z,1.27
2023-03-28T23:26:25.233Z,1.00
2023-03-28T23:28:55.649Z,1.20
2023-03-28T23:31:26.142Z,1.07
2023-03-28T23:33:55.299Z,2.13
2023-03-28T23:36:27.062Z,1.50
2023-03-28T23:38:56.556Z,1.30
2023-03-28T23:41:29.092Z,1.23
2023-03-28T23:43:59.521Z,2.20
2023-03-28T23:46:28.517Z,1.50
2023-03-28T23:48:56.601Z,1.07
2023-03-28T23:51:27.117Z,1.23
2023-03-28T23:53:59.491Z,0.70
2023-03-28T23:56:33.899Z,1.10
2023-03-28T23:59:03.650Z,1.17
